Port Said Airport, Egypt

17:50 EET 23. Červenec 2014 (GMT +0200)
Port Said (HEPS) Výška 7 ft | 31.28 °N, 32.24 °E | Change Station

Current weather conditions updated 50 minutes ago

Clear
Jasno
84 °F
Pocit jako 91 °F
S
14
Vítr proměnlivý Vítr od severní

Zítra má být podle předpovědi tepleji než dnes.

Dnes
Vysoké -- | Nízké -- °F
--% Možnost srážek
Včera
Vysoké -- | Nízké -- °F
Precip. -- inčů
5:01 AM 6:52 PM
Ubývající srpek, 10% visible
Tlak 29.80 inčů
Viditelnost -9999.0 mílí
Zataženo
Tepelný index 91 °F
Rosný bod 73 °F
Vlhkost 70%
Dešťové srážky 0.00 inčů
Sněhová pokrývka Není k dispozici
UV záření Není k dispozici
Pyl Není k dispozici
Kvalita ovzduší Není k dispozici
Flu Activity Není k dispozici
METAR HEPS 231500Z 36012KT CAVOK 29/23 Q1009 NOSIG

More Conditions Fewer Conditions

Tlak 29.80 inčů
Viditelnost -9999.0 mílí
Zataženo
Tepelný index 91 °F
Rosný bod 73 °F
Vlhkost 70%
Dešťové srážky 0.00 inčů
Sněhová pokrývka Není k dispozici
UV záření Není k dispozici
Pyl Není k dispozici
Kvalita ovzduší Není k dispozici
Flu Activity Není k dispozici
METAR HEPS 231500Z 36012KT CAVOK 29/23 Q1009 NOSIG

More Conditions Fewer Conditions

10-Day Weather Forecast

Almanac

Astronomie

Jul. 23, 2014 Východ Západ
Skutečný čas 05:01 EET 18:52 EET
Občanský soumrak 04:34 EET 19:19 EET
Námořní soumrak 04:02 EET 19:51 EET
Astronomický soumrak 03:27 EET 20:26 EET
Měsíc 02:03 EET 16:05 EET
Délka denního světla 14h 44m
Délka dne
13h 50m
Tomorrow will be 1m 11s shorter.
Ubývající srpek, 10% of the Moon is Illuminated
Dnes
Ubývající srpek
Čec 26
Nov
Srp 3
První čtvrť
Srp 10
Úplněk
Srp 17
Ubývající

Dnešní extrémy

Nejvyšší hodnoty ve státě Nejnižší hodnoty ve státě

Community

WunderPhotos

Upload Photos

1,736,644 snímků staženo!

Nearby

Výška sněhu

Not available.

Seizmická činnost

Město Distance Mag. Čas & datum
Žádné zemětřesení v okolí nebylo hlášeno
Minimální zobrazený rozsah je 2.5.

Pobřežní teplota vody

Lokalita Teplota
Stanice nic nehlásí

Poblíž povětrnostní stanice

There are no personal weather stations in this area.